Latest Weather Observations for Gold Coast Seaway

IDQ60901

Issued at 5:01 pm EST Sunday 1 February 2015 (issued every 10 minutes, with the page automatically refreshed every 10 minutes)

About weather observations | Map of Brisbane area stations | Latest observations for Brisbane area | Other Formats
Station Details ID: 040764 Name: GOLD COAST SEAWAY Lat: -27.94 Lon: 153.43 Height: 2.98 m
Data from the previous 72 hours. | See also: Recent months at Gold Coast Seaway
Date/Time
EST
Tmp

°C
App
Tmp
°C
Dew
Point
°C
Rel
Hum
%
Delta-T

°C
Wind Press
QNH
hPa
Press
MSL
hPa
Rain
since
9 am
mm
Dir
 
Spd
km/h
Gust
km/h
Spd
kts
Gust
kts
01/05:00pm 28.5 30.3 23.2 73 3.6 E 19 20 10 11 1005.2 1005.2 0.0
01/04:30pm 28.4 29.5 22.4 70 4.1 ESE 20 26 11 14 1004.8 1004.8 0.0
01/04:00pm 28.9 30.0 22.4 68 4.4 ESE 20 26 11 14 1004.6 1004.6 0.0
01/03:30pm 29.2 29.7 21.9 64 4.9 ESE 22 26 12 14 1004.6 1004.6 0.0
01/03:00pm 29.5 30.6 22.0 64 5.1 ESE 19 22 10 12 1004.7 1004.7 0.0
01/02:30pm 29.7 30.5 22.4 65 5.0 ESE 22 26 12 14 1004.8 1004.8 0.0
01/02:00pm 29.6 30.7 22.3 65 5.0 ESE 20 26 11 14 1005.0 1005.0 0.0
01/01:30pm 29.6 30.9 22.6 66 4.8 E 20 24 11 13 1005.3 1005.3 0.0
01/01:00pm 28.9 30.1 22.2 67 4.5 E 19 22 10 12 1005.5 1005.5 0.0
01/12:30pm 29.1 30.7 22.8 69 4.3 E 19 22 10 12 1005.8 1005.8 0.0
01/12:00pm 28.7 29.8 22.0 67 4.5 E 19 22 10 12 1006.2 1006.2 0.0
01/11:30am 28.7 30.0 22.4 68 4.3 E 19 20 10 11 1006.7 1006.7 0.0
01/11:00am 28.8 31.1 23.5 73 3.6 E 17 17 9 9 1007.0 1007.0 0.0
01/10:30am 28.0 30.7 22.9 74 3.5 NW 13 15 7 8 1007.3 1007.3 0.0
01/10:00am 27.8 30.5 22.1 71 3.8 WNW 11 13 6 7 1007.5 1007.5 0.0
01/09:30am 27.3 30.2 21.8 72 3.7 WNW 9 11 5 6 1007.5 1007.5 0.0
01/09:00am 27.3 30.8 21.8 72 3.7 WNW 6 7 3 4 1007.5 1007.5 18.2
01/08:30am 27.3 32.2 22.3 74 3.4 CALM 0 2 0 1 1007.4 1007.4 18.2
01/08:00am 26.2 31.1 22.3 79 2.6 CALM 0 4 0 2 1007.2 1007.2 18.2
01/07:30am 25.1 29.1 21.4 80 2.4 WNW 2 7 1 4 1007.2 1007.2 18.2
01/07:00am 24.9 29.3 21.4 81 2.3 CALM 0 0 0 0 1007.0 1007.0 18.2
01/06:30am 23.8 27.0 21.3 86 1.6 WNW 6 7 3 4 1006.7 1006.7 18.2
01/05:30am 23.2 27.3 21.6 91 1.1 WNW 2 7 1 4 1006.1 1006.1 18.2
01/05:00am 23.5 27.0 22.1 92 0.9 WNW 7 9 4 5 1005.8 1005.8 18.2
01/04:30am 23.6 26.6 21.9 90 1.1 WNW 9 11 5 6 1005.5 1005.5 18.2
01/04:00am 23.8 26.4 21.9 89 1.3 WNW 11 13 6 7 1005.4 1005.4 18.2
01/03:30am 23.5 26.3 21.6 89 1.3 WNW 9 13 5 7 1005.3 1005.3 18.2
01/03:00am 23.7 27.7 22.0 90 1.1 WNW 4 7 2 4 1005.5 1005.5 18.2
01/02:30am 23.3 26.7 21.7 91 1.1 WNW 6 9 3 5 1005.5 1005.5 18.2
01/02:00am 22.7 25.5 20.8 89 1.2 WNW 7 9 4 5 1005.6 1005.6 18.2
01/01:30am 22.3 24.9 20.4 89 1.2 WNW 7 9 4 5 1005.7 1005.7 18.2
01/01:00am 22.0 24.0 19.9 88 1.3 WNW 9 11 5 6 1005.9 1005.9 18.2
01/12:30am 21.9 24.1 19.5 86 1.5 WNW 7 9 4 5 1006.1 1006.1 18.2
01/12:00am 21.8 23.8 19.2 85 1.7 WNW 7 11 4 6 1006.4 1006.4 18.2
 
Date/Time
EST
Tmp

°C
App
Tmp
°C
Dew
Point
°C
Rel
Hum
%
Delta-T

°C
Wind Press
QNH
hPa
Press
MSL
hPa
Rain
since
9 am
mm
Dir
 
Spd
km/h
Gust
km/h
Spd
kts
Gust
kts
31/11:30pm 22.4 24.3 19.8 85 1.7 WNW 9 13 5 7 1006.6 1006.6 18.2
31/11:00pm 22.5 23.8 20.2 87 1.5 WNW 13 17 7 9 1006.9 1006.9 18.2
31/10:30pm 22.3 23.2 20.0 87 1.5 W 15 19 8 10 1007.1 1007.1 18.2
31/10:00pm 21.8 23.1 19.2 85 1.7 WNW 11 17 6 9 1007.2 1007.2 18.2
31/09:30pm 21.4 22.5 18.8 85 1.6 WNW 11 15 6 8 1007.1 1007.1 18.2
31/09:00pm 21.4 21.8 19.1 87 1.5 NW 15 17 8 9 1007.1 1007.1 18.2
31/08:30pm 21.3 21.9 18.5 84 1.8 NW 13 15 7 8 1007.0 1007.0 18.2
31/08:00pm 21.2 21.9 18.0 82 2.0 NW 11 13 6 7 1006.8 1006.8 18.2
31/07:30pm 21.3 22.6 18.5 84 1.8 NW 9 11 5 6 1006.4 1006.4 18.2
31/07:00pm 21.4 23.2 18.4 83 1.9 NW 6 11 3 6 1005.9 1005.9 18.2
31/06:30pm 21.9 23.4 18.1 79 2.4 NW 7 11 4 6 1005.6 1005.6 18.2
31/06:00pm 22.8 23.6 19.0 79 2.4 NNW 13 17 7 9 1004.9 1004.9 18.2
31/05:30pm 21.7 19.4 19.4 87 1.5 NNE 30 37 16 20 1004.2 1004.2 18.2
31/05:00pm 20.4 18.2 17.8 85 1.6 NNW 26 35 14 19 1005.2 1005.2 17.6
31/04:59pm 20.4 17.8 17.8 85 1.6 N 28 39 15 21 1005.2 1005.2 17.6
31/04:35pm 22.4 19.0 19.9 86 1.6 ESE 37 43 20 23 1003.2 1003.2 17.6
31/04:30pm 22.1 19.1 20.7 92 0.9 SE 37 41 20 22 1003.1 1003.1 17.4
31/04:19pm 20.4 18.0 18.3 88 1.3 S 28 54 15 29 1004.0 1004.0 16.6
31/04:14pm 19.8 15.2 17.2 85 1.6 SW 37 76 20 41 1004.1 1004.1 16.4
31/04:03pm 19.3 14.3 16.0 81 2.0 WNW 37 76 20 41 1005.6 1005.6 6.0
31/04:00pm 21.5 17.8 17.5 78 2.5 NNW 33 54 18 29 1005.2 1005.2 2.4
31/03:58pm 23.9 20.6 18.3 71 3.5 N 33 54 18 29 1005.8 1005.8 0.4
31/03:57pm 25.2 22.9 20.2 74 3.3 N 32 39 17 21 1005.7 1005.7 0.2
31/03:30pm 27.0 24.7 21.3 71 3.8 NNE 35 44 19 24 1003.1 1003.1 0.0
31/03:00pm 28.8 26.4 21.8 66 4.7 NNE 37 43 20 23 1003.4 1003.4 0.0
31/02:30pm 29.5 27.4 21.7 63 5.2 NNE 35 41 19 22 1003.8 1003.8 0.0
31/02:00pm 30.0 28.5 22.7 65 5.0 NNE 35 41 19 22 1004.2 1004.2 0.0
31/01:30pm 29.9 27.7 22.1 63 5.3 NNE 37 41 20 22 1004.6 1004.6 0.0
31/01:00pm 30.7 29.5 22.6 62 5.5 NNE 33 37 18 20 1005.0 1005.0 0.0
31/12:30pm 31.0 30.3 21.8 58 6.2 NNE 28 33 15 18 1005.4 1005.4 0.0
31/12:00pm 31.0 30.4 21.2 56 6.6 NNE 26 33 14 18 1005.7 1005.7 0.0
31/11:30am 29.7 29.7 21.6 61 5.4 NE 24 28 13 15 1006.2 1006.2 0.0
31/11:00am 29.9 29.4 20.7 57 6.1 NNE 24 28 13 15 1006.7 1006.7 0.0
31/10:30am 28.9 28.1 18.4 53 6.7 N 20 28 11 15 1007.0 1007.0 0.0
31/10:00am 28.2 27.6 18.9 57 6.0 N 20 28 11 15 1007.3 1007.3 0.0
31/09:30am 28.2 28.0 19.4 59 5.7 N 19 28 10 15 1007.6 1007.6 0.0
31/09:00am 27.2 26.6 18.5 59 5.6 NW 19 26 10 14 1007.7 1007.7 0.0
31/08:30am 26.4 25.7 18.3 61 5.1 NW 19 26 10 14 1007.8 1007.8 0.0
31/08:00am 25.6 26.1 19.3 68 4.1 NW 15 19 8 10 1007.9 1007.9 0.0
31/07:30am 24.6 26.4 18.8 70 3.7 NW 7 11 4 6 1008.1 1008.1 0.0
31/07:00am 23.5 25.0 18.8 75 3.0 NW 9 11 5 6 1008.0 1008.0 0.0
31/06:30am 22.5 23.1 18.7 79 2.4 NW 13 15 7 8 1007.7 1007.7 0.0
31/06:00am 22.0 23.5 18.8 82 2.0 NW 9 13 5 7 1007.4 1007.4 0.0
31/05:30am 21.5 22.4 18.5 83 1.9 NW 11 13 6 7 1007.0 1007.0 0.0
31/05:00am 21.7 22.4 18.9 84 1.8 NW 13 17 7 9 1006.7 1006.7 0.0
31/04:30am 21.7 22.8 18.9 84 1.8 NW 11 15 6 8 1006.5 1006.5 0.0
31/04:00am 21.9 23.1 19.1 84 1.8 NNW 11 15 6 8 1006.3 1006.3 0.0
31/03:30am 22.0 23.5 19.0 83 1.9 NNW 9 11 5 6 1006.2 1006.2 0.0
31/03:00am 22.2 23.5 19.2 83 1.9 NNW 11 15 6 8 1006.2 1006.2 0.0
31/02:30am 22.4 24.1 19.4 83 1.9 NNW 9 13 5 7 1006.3 1006.3 0.0
31/02:00am 22.3 24.0 19.3 83 1.9 NNW 9 13 5 7 1006.3 1006.3 0.0
31/01:30am 22.2 23.8 19.2 83 1.9 NNW 9 13 5 7 1006.7 1006.7 0.0
31/01:00am 22.2 23.7 19.0 82 2.0 NNW 9 11 5 6 1006.9 1006.9 0.0
31/12:30am 22.3 24.3 19.1 82 2.0 NNW 7 9 4 5 1007.1 1007.1 0.0
31/12:00am 22.0 23.9 19.0 83 1.9 NNW 7 9 4 5 1007.4 1007.4 0.0
 
Date/Time
EST
Tmp

°C
App
Tmp
°C
Dew
Point
°C
Rel
Hum
%
Delta-T

°C
Wind Press
QNH
hPa
Press
MSL
hPa
Rain
since
9 am
mm
Dir
 
Spd
km/h
Gust
km/h
Spd
kts
Gust
kts
30/11:30pm 21.9 23.8 18.5 81 2.1 NNW 6 7 3 4 1007.6 1007.6 0.0
30/11:00pm 22.4 25.0 18.4 78 2.5 NNW 2 7 1 4 1007.8 1007.8 0.0
30/10:30pm 23.0 24.9 19.0 78 2.5 NNW 7 9 4 5 1007.8 1007.8 0.0
30/10:00pm 23.6 25.2 19.1 76 2.9 NNW 9 11 5 6 1008.0 1008.0 0.0
30/09:30pm 23.7 24.8 18.8 74 3.1 NNW 11 13 6 7 1007.9 1007.9 0.0
30/09:00pm 23.7 24.4 18.8 74 3.1 NNW 13 17 7 9 1007.7 1007.7 0.0
30/08:30pm 23.7 23.7 18.1 71 3.5 N 15 20 8 11 1007.5 1007.5 0.0
30/08:00pm 24.0 24.0 18.2 70 3.7 N 15 20 8 11 1007.4 1007.4 0.0
30/07:30pm 24.3 23.6 18.2 68 3.8 N 19 26 10 14 1007.1 1007.1 0.0
30/07:00pm 24.9 22.2 19.3 71 3.6 N 32 37 17 20 1006.9 1006.9 0.0
30/06:30pm 24.9 21.7 18.6 68 4.0 N 33 39 18 21 1006.6 1006.6 0.0
30/06:00pm 25.4 22.3 18.8 67 4.2 NNE 33 37 18 20 1006.3 1006.3 0.0
30/05:30pm 26.0 22.8 18.7 64 4.7 NNE 33 39 18 21 1006.0 1006.0 0.0
30/05:00pm 26.4 23.4 19.0 63 4.8 NNE 33 37 18 20 1005.9 1005.9 0.0
30/04:30pm 26.7 22.9 18.0 59 5.5 NNE 35 39 19 21 1005.7 1005.7 0.0
30/04:00pm 27.1 24.0 18.9 61 5.3 NNE 33 37 18 20 1005.7 1005.7 0.0
30/03:30pm 27.3 23.8 18.0 56 5.9 NNE 33 37 18 20 1006.1 1006.1 0.0
30/03:00pm 27.6 24.5 18.3 57 5.9 NNE 32 35 17 19 1006.4 1006.4 0.0
30/02:30pm 28.4 25.6 18.2 54 6.5 NNE 30 35 16 19 1006.6 1006.6 0.0
30/02:00pm 28.5 26.5 18.3 54 6.5 NNE 26 30 14 16 1007.0 1007.0 0.0
30/01:30pm 28.2 27.1 18.6 56 6.2 NE 22 28 12 15 1007.4 1007.4 0.0
30/01:00pm 27.8 27.0 18.5 57 6.0 NE 20 26 11 14 1007.8 1007.8 0.0
30/12:30pm 28.3 28.3 19.0 57 6.0 NE 17 22 9 12 1008.2 1008.2 0.0
30/12:00pm 28.2 28.8 18.6 56 6.2 ESE 13 17 7 9 1008.6 1008.6 0.0
30/11:30am 28.1 28.5 18.2 55 6.3 ESE 13 15 7 8 1008.9 1008.9 0.0
30/11:00am 27.6 28.5 17.5 54 6.4 ESE 9 13 5 7 1009.1 1009.1 0.0
30/10:30am 27.2 27.8 16.8 53 6.5 ESE 9 11 5 6 1009.5 1009.5 0.0
30/10:00am 27.1 28.4 17.6 56 6.0 SSW 7 9 4 5 1009.7 1009.7 0.0
30/09:30am 27.3 28.0 16.0 50 6.9 SSW 7 7 4 4 1009.6 1009.6 0.0
30/09:00am 26.7 27.9 16.9 55 6.1 SSW 6 7 3 4 1009.7 1009.7 0.0
30/08:30am 26.2 28.2 17.0 57 5.7 SSW 2 7 1 4 1009.6 1009.6 0.0
30/08:00am 24.8 25.5 16.2 58 5.3 SSW 7 11 4 6 1009.6 1009.6 0.0
30/07:30am 23.8 24.3 16.6 64 4.4 SSW 9 13 5 7 1009.5 1009.5 0.0
30/07:00am 22.5 23.0 16.5 69 3.7 SSW 9 11 5 6 1009.5 1009.5 0.0
30/06:30am 21.6 22.3 17.0 75 2.8 SSW 9 13 5 7 1009.3 1009.3 0.0
30/06:00am 20.9 22.2 17.5 81 2.1 SSW 7 9 4 5 1009.1 1009.1 0.0
30/05:30am 20.4 21.2 17.4 83 1.8 SSW 9 11 5 6 1008.9 1008.9 0.0
30/05:00am 20.2 20.9 17.0 82 1.9 SSW 9 13 5 7 1008.7 1008.7 0.0
30/04:30am 20.5 21.0 17.5 83 1.8 SSW 11 13 6 7 1008.6 1008.6 0.0
30/04:00am 20.3 21.2 17.5 84 1.7 SSW 9 13 5 7 1008.7 1008.7 0.0
30/03:30am 19.9 19.9 17.3 85 1.6 SSW 13 19 7 10 1008.8 1008.8 0.0
30/03:00am 20.0 20.4 17.2 84 1.7 SSW 11 13 6 7 1008.7 1008.7 0.0
30/02:30am 20.2 20.6 17.2 83 1.8 SSW 11 15 6 8 1009.0 1009.0 0.0
30/02:00am 20.7 20.1 17.5 82 2.0 SSW 17 26 9 14 1009.2 1009.2 0.0
30/01:30am 21.1 17.6 17.5 80 2.2 S 32 39 17 21 1009.4 1009.4 0.0
30/01:00am 21.3 19.2 17.1 77 2.6 SSW 24 32 13 17 1009.5 1009.5 0.0
30/12:30am 22.1 21.6 16.8 72 3.2 SSW 15 26 8 14 1009.7 1009.7 0.0
30/12:00am 22.8 19.7 17.5 72 3.3 S 30 37 16 20 1009.7 1009.7 0.0
 
Date/Time
EST
Tmp

°C
App
Tmp
°C
Dew
Point
°C
Rel
Hum
%
Delta-T

°C
Wind Press
QNH
hPa
Press
MSL
hPa
Rain
since
9 am
mm
Dir
 
Spd
km/h
Gust
km/h
Spd
kts
Gust
kts
29/11:30pm 22.9 19.2 16.9 69 3.7 S 32 37 17 20 1009.9 1009.9 0.0
29/11:00pm 23.6 20.0 17.6 69 3.7 S 33 43 18 23 1010.1 1010.1 0.0
29/10:30pm 23.9 20.5 17.6 68 3.9 SSE 32 39 17 21 1010.0 1010.0 0.0
29/10:00pm 23.8 20.0 17.3 67 4.0 SSE 33 41 18 22 1009.9 1009.9 0.0
29/09:30pm 24.2 20.8 17.7 67 4.1 SSE 32 37 17 20 1010.1 1010.1 0.0
29/09:00pm 24.2 20.9 17.9 68 3.9 SSE 32 37 17 20 1009.8 1009.8 0.0
29/08:30pm 24.3 20.9 17.8 67 4.1 SE 32 37 17 20 1009.5 1009.5 0.0
29/08:00pm 24.4 21.3 17.6 66 4.2 SSE 30 37 16 20 1009.3 1009.3 0.0
29/07:30pm 24.3 20.9 17.8 67 4.1 SE 32 37 17 20 1009.1 1009.1 0.0
29/07:00pm 24.4 21.6 18.1 68 4.0 SSE 30 35 16 19 1008.9 1008.9 0.0
29/06:30pm 24.3 21.0 17.1 64 4.5 SE 30 35 16 19 1008.4 1008.4 0.0
29/06:00pm 24.9 21.5 17.6 64 4.6 SE 32 39 17 21 1008.0 1008.0 0.0
29/05:30pm 25.5 22.1 17.7 62 4.9 SSE 32 37 17 20 1007.6 1007.6 0.0

Latest Capital City Observations: Canberra | Sydney | Melbourne | Brisbane | Adelaide | Perth | Hobart | Darwin

Other Formats:

Comma delimited format used in spreadsheet applications
http://www.bom.gov.au/fwo/IDQ60901/IDQ60901.94580.axf

JavaScript Object Notation format (JSON) in row-major order
http://www.bom.gov.au/fwo/IDQ60901/IDQ60901.94580.json